sensor_id;sensor_type;location;lat;lon;timestamp;temperature;humidity
52125;DHT22;38119;52.710;6.398;2023-01-29T00:01:16;3.50;99.90
52125;DHT22;38119;52.710;6.398;2023-01-29T00:03:42;3.50;99.90
52125;DHT22;38119;52.710;6.398;2023-01-29T00:06:08;3.50;99.90
52125;DHT22;38119;52.710;6.398;2023-01-29T00:08:36;3.50;99.90
52125;DHT22;38119;52.710;6.398;2023-01-29T00:11:05;3.40;99.90
52125;DHT22;38119;52.710;6.398;2023-01-29T00:13:31;3.50;99.90
52125;DHT22;38119;52.710;6.398;2023-01-29T00:15:59;3.40;99.90
52125;DHT22;38119;52.710;6.398;2023-01-29T00:18:26;3.40;99.90
52125;DHT22;38119;52.710;6.398;2023-01-29T00:20:52;3.40;99.90
52125;DHT22;38119;52.710;6.398;2023-01-29T00:23:18;3.40;99.90
52125;DHT22;38119;52.710;6.398;2023-01-29T00:25:44;3.40;99.90
52125;DHT22;38119;52.710;6.398;2023-01-29T00:28:10;3.40;99.90
52125;DHT22;38119;52.710;6.398;2023-01-29T00:30:37;3.40;99.90
52125;DHT22;38119;52.710;6.398;2023-01-29T00:33:03;3.40;99.90
52125;DHT22;38119;52.710;6.398;2023-01-29T00:35:29;3.40;99.90
52125;DHT22;38119;52.710;6.398;2023-01-29T00:37:55;3.40;99.90
52125;DHT22;38119;52.710;6.398;2023-01-29T00:40:21;3.40;99.90
52125;DHT22;38119;52.710;6.398;2023-01-29T00:42:48;3.40;99.90
52125;DHT22;38119;52.710;6.398;2023-01-29T00:45:32;3.40;99.90
52125;DHT22;38119;52.710;6.398;2023-01-29T00:47:58;3.40;99.90
52125;DHT22;38119;52.710;6.398;2023-01-29T00:50:23;3.40;99.90
52125;DHT22;38119;52.710;6.398;2023-01-29T00:52:49;3.50;99.90
52125;DHT22;38119;52.710;6.398;2023-01-29T00:55:17;3.50;99.90
52125;DHT22;38119;52.710;6.398;2023-01-29T00:57:42;3.50;99.90
52125;DHT22;38119;52.710;6.398;2023-01-29T01:00:12;3.50;99.90
52125;DHT22;38119;52.710;6.398;2023-01-29T01:02:38;3.50;99.90
52125;DHT22;38119;52.710;6.398;2023-01-29T01:05:22;3.50;99.90
52125;DHT22;38119;52.710;6.398;2023-01-29T01:07:53;3.50;99.90
52125;DHT22;38119;52.710;6.398;2023-01-29T01:10:21;3.50;99.90
52125;DHT22;38119;52.710;6.398;2023-01-29T01:13:00;3.60;99.90
52125;DHT22;38119;52.710;6.398;2023-01-29T01:15:31;3.50;99.90
52125;DHT22;38119;52.710;6.398;2023-01-29T01:17:59;3.60;99.90
52125;DHT22;38119;52.710;6.398;2023-01-29T01:20:26;3.60;99.90
52125;DHT22;38119;52.710;6.398;2023-01-29T01:22:53;3.60;99.90
52125;DHT22;38119;52.710;6.398;2023-01-29T01:25:19;3.60;99.90
52125;DHT22;38119;52.710;6.398;2023-01-29T01:27:44;3.60;99.90
52125;DHT22;38119;52.710;6.398;2023-01-29T01:30:13;3.60;99.90
52125;DHT22;38119;52.710;6.398;2023-01-29T01:32:39;3.60;99.90
52125;DHT22;38119;52.710;6.398;2023-01-29T01:35:06;3.60;99.90
52125;DHT22;38119;52.710;6.398;2023-01-29T01:37:32;3.60;99.90
52125;DHT22;38119;52.710;6.398;2023-01-29T01:39:57;3.60;99.90
52125;DHT22;38119;52.710;6.398;2023-01-29T01:42:27;3.60;99.90
52125;DHT22;38119;52.710;6.398;2023-01-29T01:44:59;3.60;99.90
52125;DHT22;38119;52.710;6.398;2023-01-29T01:47:41;3.60;99.90
52125;DHT22;38119;52.710;6.398;2023-01-29T01:50:17;3.60;99.90
52125;DHT22;38119;52.710;6.398;2023-01-29T01:52:48;3.60;99.90
52125;DHT22;38119;52.710;6.398;2023-01-29T01:55:18;3.60;99.90
52125;DHT22;38119;52.710;6.398;2023-01-29T01:57:47;3.60;99.90
52125;DHT22;38119;52.710;6.398;2023-01-29T02:00:16;3.60;99.90
52125;DHT22;38119;52.710;6.398;2023-01-29T02:02:44;3.60;99.90
52125;DHT22;38119;52.710;6.398;2023-01-29T02:05:32;3.60;99.90
52125;DHT22;38119;52.710;6.398;2023-01-29T02:08:38;3.60;99.90
52125;DHT22;38119;52.710;6.398;2023-01-29T02:11:25;3.60;99.90
52125;DHT22;38119;52.710;6.398;2023-01-29T02:13:51;3.60;99.90
52125;DHT22;38119;52.710;6.398;2023-01-29T02:16:19;3.70;99.90
52125;DHT22;38119;52.710;6.398;2023-01-29T02:18:45;3.60;99.90
52125;DHT22;38119;52.710;6.398;2023-01-29T02:29:35;3.70;99.90
52125;DHT22;38119;52.710;6.398;2023-01-29T02:32:25;3.70;99.90
52125;DHT22;38119;52.710;6.398;2023-01-29T02:35:10;3.70;99.90
52125;DHT22;38119;52.710;6.398;2023-01-29T02:40:55;3.70;99.90
52125;DHT22;38119;52.710;6.398;2023-01-29T02:48:56;3.70;99.90
52125;DHT22;38119;52.710;6.398;2023-01-29T02:52:04;3.70;99.90
52125;DHT22;38119;52.710;6.398;2023-01-29T02:57:05;3.70;99.90
52125;DHT22;38119;52.710;6.398;2023-01-29T02:59:41;3.70;99.90
52125;DHT22;38119;52.710;6.398;2023-01-29T03:02:12;3.80;99.90
52125;DHT22;38119;52.710;6.398;2023-01-29T03:04:44;3.80;99.90
52125;DHT22;38119;52.710;6.398;2023-01-29T03:07:16;3.70;99.90
52125;DHT22;38119;52.710;6.398;2023-01-29T03:10:24;3.70;99.90
52125;DHT22;38119;52.710;6.398;2023-01-29T03:13:05;3.70;99.90
52125;DHT22;38119;52.710;6.398;2023-01-29T03:15:37;3.80;99.90
52125;DHT22;38119;52.710;6.398;2023-01-29T03:18:10;3.80;99.90
52125;DHT22;38119;52.710;6.398;2023-01-29T03:20:43;3.70;99.90
52125;DHT22;38119;52.710;6.398;2023-01-29T03:23:25;3.80;99.90
52125;DHT22;38119;52.710;6.398;2023-01-29T03:26:11;3.80;99.90
52125;DHT22;38119;52.710;6.398;2023-01-29T03:28:57;3.80;99.90
52125;DHT22;38119;52.710;6.398;2023-01-29T03:31:43;3.70;99.90
52125;DHT22;38119;52.710;6.398;2023-01-29T03:34:29;3.80;99.90
52125;DHT22;38119;52.710;6.398;2023-01-29T03:37:07;3.80;99.90
52125;DHT22;38119;52.710;6.398;2023-01-29T03:39:35;3.80;99.90
52125;DHT22;38119;52.710;6.398;2023-01-29T03:42:26;3.80;99.90
52125;DHT22;38119;52.710;6.398;2023-01-29T03:53:08;3.80;99.90
52125;DHT22;38119;52.710;6.398;2023-01-29T03:55:53;3.80;99.90
52125;DHT22;38119;52.710;6.398;2023-01-29T03:58:33;3.80;99.90
52125;DHT22;38119;52.710;6.398;2023-01-29T04:01:10;3.80;99.90
52125;DHT22;38119;52.710;6.398;2023-01-29T04:03:51;3.90;99.90
52125;DHT22;38119;52.710;6.398;2023-01-29T04:06:23;3.90;99.90
52125;DHT22;38119;52.710;6.398;2023-01-29T04:11:22;3.90;99.90
52125;DHT22;38119;52.710;6.398;2023-01-29T04:13:50;3.90;99.90
52125;DHT22;38119;52.710;6.398;2023-01-29T04:16:30;3.90;99.90
52125;DHT22;38119;52.710;6.398;2023-01-29T04:18:56;3.90;99.90
52125;DHT22;38119;52.710;6.398;2023-01-29T04:21:23;3.90;99.90
52125;DHT22;38119;52.710;6.398;2023-01-29T04:23:49;3.90;99.90
52125;DHT22;38119;52.710;6.398;2023-01-29T04:29:16;3.90;99.90
52125;DHT22;38119;52.710;6.398;2023-01-29T04:32:13;3.90;99.90
52125;DHT22;38119;52.710;6.398;2023-01-29T04:37:36;3.90;99.90
52125;DHT22;38119;52.710;6.398;2023-01-29T04:40:29;4.00;99.90
52125;DHT22;38119;52.710;6.398;2023-01-29T04:43:07;4.00;99.90
52125;DHT22;38119;52.710;6.398;2023-01-29T04:51:24;4.00;99.90
52125;DHT22;38119;52.710;6.398;2023-01-29T04:57:25;4.00;99.90
52125;DHT22;38119;52.710;6.398;2023-01-29T05:00:15;4.00;99.90
52125;DHT22;38119;52.710;6.398;2023-01-29T05:02:43;4.00;99.90
52125;DHT22;38119;52.710;6.398;2023-01-29T05:05:10;4.00;99.90
52125;DHT22;38119;52.710;6.398;2023-01-29T05:07:38;4.00;99.90
52125;DHT22;38119;52.710;6.398;2023-01-29T05:10:07;4.00;99.90
52125;DHT22;38119;52.710;6.398;2023-01-29T05:12:35;4.00;99.90
52125;DHT22;38119;52.710;6.398;2023-01-29T05:15:02;4.10;99.90
52125;DHT22;38119;52.710;6.398;2023-01-29T05:17:29;4.00;99.90
52125;DHT22;38119;52.710;6.398;2023-01-29T05:19:56;4.00;99.90
52125;DHT22;38119;52.710;6.398;2023-01-29T05:22:22;4.00;99.90
52125;DHT22;38119;52.710;6.398;2023-01-29T05:24:49;4.00;99.90
52125;DHT22;38119;52.710;6.398;2023-01-29T05:27:17;4.00;99.90
52125;DHT22;38119;52.710;6.398;2023-01-29T05:30:03;4.00;99.90
52125;DHT22;38119;52.710;6.398;2023-01-29T05:32:29;3.90;99.90
52125;DHT22;38119;52.710;6.398;2023-01-29T05:34:54;4.00;99.90
52125;DHT22;38119;52.710;6.398;2023-01-29T05:37:20;3.90;99.90
52125;DHT22;38119;52.710;6.398;2023-01-29T05:39:46;3.90;99.90
52125;DHT22;38119;52.710;6.398;2023-01-29T05:42:11;3.90;99.90
52125;DHT22;38119;52.710;6.398;2023-01-29T05:44:37;3.90;99.90
52125;DHT22;38119;52.710;6.398;2023-01-29T05:47:02;3.90;99.90
52125;DHT22;38119;52.710;6.398;2023-01-29T05:49:28;3.90;99.90
52125;DHT22;38119;52.710;6.398;2023-01-29T05:51:54;3.90;99.90
52125;DHT22;38119;52.710;6.398;2023-01-29T05:54:20;3.90;99.90
52125;DHT22;38119;52.710;6.398;2023-01-29T05:56:45;3.90;99.90
52125;DHT22;38119;52.710;6.398;2023-01-29T05:59:11;3.90;99.90
52125;DHT22;38119;52.710;6.398;2023-01-29T06:01:36;3.90;99.90
52125;DHT22;38119;52.710;6.398;2023-01-29T06:04:02;3.90;99.90
52125;DHT22;38119;52.710;6.398;2023-01-29T06:06:28;3.90;99.90
52125;DHT22;38119;52.710;6.398;2023-01-29T06:08:54;3.90;99.90
52125;DHT22;38119;52.710;6.398;2023-01-29T06:11:20;3.90;99.90
52125;DHT22;38119;52.710;6.398;2023-01-29T06:13:46;3.90;99.90
52125;DHT22;38119;52.710;6.398;2023-01-29T06:16:12;3.90;99.90
52125;DHT22;38119;52.710;6.398;2023-01-29T06:18:38;3.90;99.90
52125;DHT22;38119;52.710;6.398;2023-01-29T06:21:06;3.90;99.90
52125;DHT22;38119;52.710;6.398;2023-01-29T06:23:32;3.90;99.90
52125;DHT22;38119;52.710;6.398;2023-01-29T06:26:00;3.90;99.90
52125;DHT22;38119;52.710;6.398;2023-01-29T06:28:25;3.90;99.90
52125;DHT22;38119;52.710;6.398;2023-01-29T06:30:51;3.90;99.90
52125;DHT22;38119;52.710;6.398;2023-01-29T06:33:16;3.90;99.90
52125;DHT22;38119;52.710;6.398;2023-01-29T06:35:42;3.90;99.90
52125;DHT22;38119;52.710;6.398;2023-01-29T06:38:08;3.90;99.90
52125;DHT22;38119;52.710;6.398;2023-01-29T06:40:33;3.90;99.90
52125;DHT22;38119;52.710;6.398;2023-01-29T06:42:59;3.90;99.90
52125;DHT22;38119;52.710;6.398;2023-01-29T06:45:26;3.90;99.90
52125;DHT22;38119;52.710;6.398;2023-01-29T06:47:51;3.90;99.90
52125;DHT22;38119;52.710;6.398;2023-01-29T06:50:17;3.90;99.90
52125;DHT22;38119;52.710;6.398;2023-01-29T06:52:42;3.90;99.90
52125;DHT22;38119;52.710;6.398;2023-01-29T06:55:08;3.90;99.90
52125;DHT22;38119;52.710;6.398;2023-01-29T06:57:34;3.90;99.90
52125;DHT22;38119;52.710;6.398;2023-01-29T06:59:59;3.90;99.90
52125;DHT22;38119;52.710;6.398;2023-01-29T07:02:25;3.90;99.90
52125;DHT22;38119;52.710;6.398;2023-01-29T07:04:51;3.90;99.90
52125;DHT22;38119;52.710;6.398;2023-01-29T07:07:17;3.90;99.90
52125;DHT22;38119;52.710;6.398;2023-01-29T07:09:42;3.90;99.90
52125;DHT22;38119;52.710;6.398;2023-01-29T07:12:09;3.90;99.90
52125;DHT22;38119;52.710;6.398;2023-01-29T07:14:35;4.00;99.90
52125;DHT22;38119;52.710;6.398;2023-01-29T07:17:01;4.30;99.90
52125;DHT22;38119;52.710;6.398;2023-01-29T07:19:26;3.90;99.90
52125;DHT22;38119;52.710;6.398;2023-01-29T07:21:52;4.00;99.90
52125;DHT22;38119;52.710;6.398;2023-01-29T07:24:18;4.00;99.90
52125;DHT22;38119;52.710;6.398;2023-01-29T07:26:44;4.00;99.90
52125;DHT22;38119;52.710;6.398;2023-01-29T07:29:09;4.00;99.90
52125;DHT22;38119;52.710;6.398;2023-01-29T07:31:35;4.00;99.90
52125;DHT22;38119;52.710;6.398;2023-01-29T07:34:01;4.00;99.90
52125;DHT22;38119;52.710;6.398;2023-01-29T07:36:27;4.00;99.90
52125;DHT22;38119;52.710;6.398;2023-01-29T07:38:54;4.00;99.90
52125;DHT22;38119;52.710;6.398;2023-01-29T07:41:20;4.00;99.90
52125;DHT22;38119;52.710;6.398;2023-01-29T07:43:46;4.00;99.90
52125;DHT22;38119;52.710;6.398;2023-01-29T07:46:12;4.00;99.90
52125;DHT22;38119;52.710;6.398;2023-01-29T07:48:37;4.00;99.90
52125;DHT22;38119;52.710;6.398;2023-01-29T07:51:03;4.00;99.90
52125;DHT22;38119;52.710;6.398;2023-01-29T07:53:29;4.00;99.90
52125;DHT22;38119;52.710;6.398;2023-01-29T07:55:55;4.00;99.90
52125;DHT22;38119;52.710;6.398;2023-01-29T07:58:21;4.00;99.90
52125;DHT22;38119;52.710;6.398;2023-01-29T08:00:46;4.00;99.90
52125;DHT22;38119;52.710;6.398;2023-01-29T08:03:14;4.00;99.90
52125;DHT22;38119;52.710;6.398;2023-01-29T08:05:44;4.00;99.90
52125;DHT22;38119;52.710;6.398;2023-01-29T08:08:10;4.00;99.90
52125;DHT22;38119;52.710;6.398;2023-01-29T08:10:37;4.00;99.90
52125;DHT22;38119;52.710;6.398;2023-01-29T08:13:04;4.00;99.90
52125;DHT22;38119;52.710;6.398;2023-01-29T08:15:29;4.00;99.90
52125;DHT22;38119;52.710;6.398;2023-01-29T08:17:55;4.00;99.90
52125;DHT22;38119;52.710;6.398;2023-01-29T08:20:22;4.00;99.90
52125;DHT22;38119;52.710;6.398;2023-01-29T08:22:47;4.00;99.90
52125;DHT22;38119;52.710;6.398;2023-01-29T08:25:14;4.00;99.90
52125;DHT22;38119;52.710;6.398;2023-01-29T08:27:40;4.00;99.90
52125;DHT22;38119;52.710;6.398;2023-01-29T08:30:08;4.00;99.90
52125;DHT22;38119;52.710;6.398;2023-01-29T08:32:34;4.00;99.90
52125;DHT22;38119;52.710;6.398;2023-01-29T08:35:00;4.00;99.90
52125;DHT22;38119;52.710;6.398;2023-01-29T08:37:26;4.00;99.90
52125;DHT22;38119;52.710;6.398;2023-01-29T08:39:51;4.00;99.90
52125;DHT22;38119;52.710;6.398;2023-01-29T08:42:17;4.00;99.90
52125;DHT22;38119;52.710;6.398;2023-01-29T08:44:42;4.00;99.90
52125;DHT22;38119;52.710;6.398;2023-01-29T08:47:08;4.00;99.90
52125;DHT22;38119;52.710;6.398;2023-01-29T08:49:34;4.00;99.90
52125;DHT22;38119;52.710;6.398;2023-01-29T08:51:59;4.00;99.90
52125;DHT22;38119;52.710;6.398;2023-01-29T08:54:25;4.10;99.90
52125;DHT22;38119;52.710;6.398;2023-01-29T08:56:51;4.00;99.90
52125;DHT22;38119;52.710;6.398;2023-01-29T08:59:16;4.10;99.90
52125;DHT22;38119;52.710;6.398;2023-01-29T09:01:42;4.00;99.90
52125;DHT22;38119;52.710;6.398;2023-01-29T09:04:08;4.00;99.90
52125;DHT22;38119;52.710;6.398;2023-01-29T09:06:33;4.00;99.90
52125;DHT22;38119;52.710;6.398;2023-01-29T09:08:59;4.00;99.90
52125;DHT22;38119;52.710;6.398;2023-01-29T09:11:25;3.60;99.90
52125;DHT22;38119;52.710;6.398;2023-01-29T09:13:50;4.00;99.90
52125;DHT22;38119;52.710;6.398;2023-01-29T09:16:16;4.00;99.90
52125;DHT22;38119;52.710;6.398;2023-01-29T09:18:42;4.10;99.90
52125;DHT22;38119;52.710;6.398;2023-01-29T09:21:07;4.00;99.90
52125;DHT22;38119;52.710;6.398;2023-01-29T09:23:33;4.10;99.90
52125;DHT22;38119;52.710;6.398;2023-01-29T09:25:59;4.10;99.90
52125;DHT22;38119;52.710;6.398;2023-01-29T09:28:24;4.10;99.90
52125;DHT22;38119;52.710;6.398;2023-01-29T09:30:50;4.10;99.90
52125;DHT22;38119;52.710;6.398;2023-01-29T09:33:16;4.10;99.90
52125;DHT22;38119;52.710;6.398;2023-01-29T09:35:42;4.10;99.90
52125;DHT22;38119;52.710;6.398;2023-01-29T09:38:09;4.20;99.90
52125;DHT22;38119;52.710;6.398;2023-01-29T09:40:57;4.30;99.90
52125;DHT22;38119;52.710;6.398;2023-01-29T09:43:46;4.30;99.90
52125;DHT22;38119;52.710;6.398;2023-01-29T09:46:18;4.30;99.90
52125;DHT22;38119;52.710;6.398;2023-01-29T09:48:44;4.30;99.90
52125;DHT22;38119;52.710;6.398;2023-01-29T09:51:35;4.40;99.90
52125;DHT22;38119;52.710;6.398;2023-01-29T09:56:51;4.40;99.90
52125;DHT22;38119;52.710;6.398;2023-01-29T09:59:21;4.40;99.90
52125;DHT22;38119;52.710;6.398;2023-01-29T10:01:53;4.40;99.90
52125;DHT22;38119;52.710;6.398;2023-01-29T10:04:28;4.50;99.90
52125;DHT22;38119;52.710;6.398;2023-01-29T10:09:59;4.50;99.90
52125;DHT22;38119;52.710;6.398;2023-01-29T10:12:48;4.50;99.90
52125;DHT22;38119;52.710;6.398;2023-01-29T10:20:52;4.50;99.90
52125;DHT22;38119;52.710;6.398;2023-01-29T10:23:32;4.60;99.90
52125;DHT22;38119;52.710;6.398;2023-01-29T10:25:59;4.60;99.90
52125;DHT22;38119;52.710;6.398;2023-01-29T10:28:33;4.60;99.90
52125;DHT22;38119;52.710;6.398;2023-01-29T10:31:23;4.60;99.90
52125;DHT22;38119;52.710;6.398;2023-01-29T10:34:01;4.60;99.90
52125;DHT22;38119;52.710;6.398;2023-01-29T10:36:35;4.60;99.90
52125;DHT22;38119;52.710;6.398;2023-01-29T10:39:02;4.60;99.90
52125;DHT22;38119;52.710;6.398;2023-01-29T10:44:36;4.60;99.90
52125;DHT22;38119;52.710;6.398;2023-01-29T10:50:00;4.70;99.90
52125;DHT22;38119;52.710;6.398;2023-01-29T10:52:38;4.70;99.90
52125;DHT22;38119;52.710;6.398;2023-01-29T11:00:50;4.60;99.90
52125;DHT22;38119;52.710;6.398;2023-01-29T11:03:24;4.90;99.90
52125;DHT22;38119;52.710;6.398;2023-01-29T11:06:10;4.70;99.90
52125;DHT22;38119;52.710;6.398;2023-01-29T11:11:22;4.70;99.90
52125;DHT22;38119;52.710;6.398;2023-01-29T11:13:52;4.70;99.90
52125;DHT22;38119;52.710;6.398;2023-01-29T11:16:19;4.70;99.90
52125;DHT22;38119;52.710;6.398;2023-01-29T11:19:11;4.70;99.90
52125;DHT22;38119;52.710;6.398;2023-01-29T11:21:59;4.80;99.90
52125;DHT22;38119;52.710;6.398;2023-01-29T11:24:31;4.90;99.90
52125;DHT22;38119;52.710;6.398;2023-01-29T11:26:59;4.90;99.90
52125;DHT22;38119;52.710;6.398;2023-01-29T11:29:44;4.90;99.90
52125;DHT22;38119;52.710;6.398;2023-01-29T11:35:28;5.00;99.90
52125;DHT22;38119;52.710;6.398;2023-01-29T11:38:27;5.10;99.90
52125;DHT22;38119;52.710;6.398;2023-01-29T11:41:09;5.10;99.90
52125;DHT22;38119;52.710;6.398;2023-01-29T11:43:38;5.10;99.90
52125;DHT22;38119;52.710;6.398;2023-01-29T11:46:10;5.20;99.90
52125;DHT22;38119;52.710;6.398;2023-01-29T11:48:45;5.20;99.90
52125;DHT22;38119;52.710;6.398;2023-01-29T11:51:25;5.20;99.90
52125;DHT22;38119;52.710;6.398;2023-01-29T11:53:59;5.20;99.90
52125;DHT22;38119;52.710;6.398;2023-01-29T11:56:32;5.30;99.90
52125;DHT22;38119;52.710;6.398;2023-01-29T11:58:59;5.30;99.90
52125;DHT22;38119;52.710;6.398;2023-01-29T12:01:37;5.30;99.90
52125;DHT22;38119;52.710;6.398;2023-01-29T12:04:31;5.20;99.90
52125;DHT22;38119;52.710;6.398;2023-01-29T12:06:57;5.20;99.90
52125;DHT22;38119;52.710;6.398;2023-01-29T12:09:24;5.20;99.90
52125;DHT22;38119;52.710;6.398;2023-01-29T12:11:52;5.10;99.90
52125;DHT22;38119;52.710;6.398;2023-01-29T12:14:26;5.10;99.90
52125;DHT22;38119;52.710;6.398;2023-01-29T12:17:18;5.10;99.90
52125;DHT22;38119;52.710;6.398;2023-01-29T12:19:53;5.10;99.90
52125;DHT22;38119;52.710;6.398;2023-01-29T12:25:37;5.10;99.90
52125;DHT22;38119;52.710;6.398;2023-01-29T12:36:40;5.10;99.90
52125;DHT22;38119;52.710;6.398;2023-01-29T12:39:12;5.10;99.90
52125;DHT22;38119;52.710;6.398;2023-01-29T12:42:08;5.10;99.90
52125;DHT22;38119;52.710;6.398;2023-01-29T12:44:39;5.20;99.90
52125;DHT22;38119;52.710;6.398;2023-01-29T12:49:47;5.20;99.90
52125;DHT22;38119;52.710;6.398;2023-01-29T12:52:21;5.20;99.90
52125;DHT22;38119;52.710;6.398;2023-01-29T12:54:56;5.10;99.90
52125;DHT22;38119;52.710;6.398;2023-01-29T12:57:30;5.10;99.90
52125;DHT22;38119;52.710;6.398;2023-01-29T13:00:02;5.10;99.90
52125;DHT22;38119;52.710;6.398;2023-01-29T13:03:13;5.10;99.90
52125;DHT22;38119;52.710;6.398;2023-01-29T13:09:27;5.10;99.90
52125;DHT22;38119;52.710;6.398;2023-01-29T13:12:10;5.00;99.90
52125;DHT22;38119;52.710;6.398;2023-01-29T13:14:44;5.00;99.90
52125;DHT22;38119;52.710;6.398;2023-01-29T13:19:45;5.00;99.90
52125;DHT22;38119;52.710;6.398;2023-01-29T13:22:23;5.00;99.90
52125;DHT22;38119;52.710;6.398;2023-01-29T13:24:50;5.00;99.90
52125;DHT22;38119;52.710;6.398;2023-01-29T13:27:24;4.90;99.90
52125;DHT22;38119;52.710;6.398;2023-01-29T13:29:50;5.00;99.90
52125;DHT22;38119;52.710;6.398;2023-01-29T13:32:27;4.90;99.90
52125;DHT22;38119;52.710;6.398;2023-01-29T13:34:56;4.90;99.90
52125;DHT22;38119;52.710;6.398;2023-01-29T13:37:26;4.90;99.90
52125;DHT22;38119;52.710;6.398;2023-01-29T13:39:56;4.90;99.90
52125;DHT22;38119;52.710;6.398;2023-01-29T13:42:25;4.90;99.90
52125;DHT22;38119;52.710;6.398;2023-01-29T13:45:00;4.90;99.90
52125;DHT22;38119;52.710;6.398;2023-01-29T13:47:29;4.90;99.90
52125;DHT22;38119;52.710;6.398;2023-01-29T14:13:44;4.90;99.90
52125;DHT22;38119;52.710;6.398;2023-01-29T14:23:44;4.90;99.90
52125;DHT22;38119;52.710;6.398;2023-01-29T14:31:58;4.80;99.90
52125;DHT22;38119;52.710;6.398;2023-01-29T14:34:48;4.80;99.90
52125;DHT22;38119;52.710;6.398;2023-01-29T14:39:46;4.80;99.90
52125;DHT22;38119;52.710;6.398;2023-01-29T14:42:17;4.80;99.90
52125;DHT22;38119;52.710;6.398;2023-01-29T14:50:01;4.70;99.90
52125;DHT22;38119;52.710;6.398;2023-01-29T14:52:41;4.60;99.90
52125;DHT22;38119;52.710;6.398;2023-01-29T14:55:22;4.60;99.90
52125;DHT22;38119;52.710;6.398;2023-01-29T14:57:51;4.60;99.90
52125;DHT22;38119;52.710;6.398;2023-01-29T15:00:26;4.50;99.90
52125;DHT22;38119;52.710;6.398;2023-01-29T15:02:53;4.50;99.90
52125;DHT22;38119;52.710;6.398;2023-01-29T15:05:34;4.50;99.90
52125;DHT22;38119;52.710;6.398;2023-01-29T15:08:06;4.50;99.90
52125;DHT22;38119;52.710;6.398;2023-01-29T15:10:42;4.50;99.90
52125;DHT22;38119;52.710;6.398;2023-01-29T15:13:24;4.50;99.90
52125;DHT22;38119;52.710;6.398;2023-01-29T15:18:42;4.50;99.90
52125;DHT22;38119;52.710;6.398;2023-01-29T15:21:14;4.40;99.90
52125;DHT22;38119;52.710;6.398;2023-01-29T15:23:41;4.40;99.90
52125;DHT22;38119;52.710;6.398;2023-01-29T15:26:10;4.50;99.90
52125;DHT22;38119;52.710;6.398;2023-01-29T15:28:37;4.50;99.90
52125;DHT22;38119;52.710;6.398;2023-01-29T15:31:11;4.40;99.90
52125;DHT22;38119;52.710;6.398;2023-01-29T15:33:40;4.40;99.90
52125;DHT22;38119;52.710;6.398;2023-01-29T15:36:10;4.40;99.90
52125;DHT22;38119;52.710;6.398;2023-01-29T15:38:40;4.40;99.90
52125;DHT22;38119;52.710;6.398;2023-01-29T15:41:17;4.40;99.90
52125;DHT22;38119;52.710;6.398;2023-01-29T15:43:46;4.40;99.90
52125;DHT22;38119;52.710;6.398;2023-01-29T15:46:29;4.40;99.90
52125;DHT22;38119;52.710;6.398;2023-01-29T15:48:59;4.40;99.90
52125;DHT22;38119;52.710;6.398;2023-01-29T15:51:27;4.40;99.90
52125;DHT22;38119;52.710;6.398;2023-01-29T15:56:41;4.40;99.90
52125;DHT22;38119;52.710;6.398;2023-01-29T15:59:16;4.40;99.90
52125;DHT22;38119;52.710;6.398;2023-01-29T16:01:43;4.40;99.90
52125;DHT22;38119;52.710;6.398;2023-01-29T16:04:20;4.40;99.90
52125;DHT22;38119;52.710;6.398;2023-01-29T16:06:47;4.40;99.90
52125;DHT22;38119;52.710;6.398;2023-01-29T16:09:21;4.40;99.90
52125;DHT22;38119;52.710;6.398;2023-01-29T16:11:48;4.50;99.90
52125;DHT22;38119;52.710;6.398;2023-01-29T16:14:18;4.50;99.90
52125;DHT22;38119;52.710;6.398;2023-01-29T16:16:45;4.50;99.90
52125;DHT22;38119;52.710;6.398;2023-01-29T16:19:25;4.50;99.90
52125;DHT22;38119;52.710;6.398;2023-01-29T16:22:09;4.50;99.90
52125;DHT22;38119;52.710;6.398;2023-01-29T16:24:36;4.50;99.90
52125;DHT22;38119;52.710;6.398;2023-01-29T16:27:10;4.50;99.90
52125;DHT22;38119;52.710;6.398;2023-01-29T16:29:37;4.50;99.90
52125;DHT22;38119;52.710;6.398;2023-01-29T16:32:03;4.50;99.90
52125;DHT22;38119;52.710;6.398;2023-01-29T16:34:39;4.60;99.90
52125;DHT22;38119;52.710;6.398;2023-01-29T16:37:25;4.50;99.90
52125;DHT22;38119;52.710;6.398;2023-01-29T16:39:52;4.50;99.90
52125;DHT22;38119;52.710;6.398;2023-01-29T16:42:19;4.50;99.90
52125;DHT22;38119;52.710;6.398;2023-01-29T16:44:50;4.50;99.90
52125;DHT22;38119;52.710;6.398;2023-01-29T16:49:53;4.50;99.90
52125;DHT22;38119;52.710;6.398;2023-01-29T16:52:23;4.50;99.90
52125;DHT22;38119;52.710;6.398;2023-01-29T16:54:48;4.40;99.90
52125;DHT22;38119;52.710;6.398;2023-01-29T16:57:18;4.40;99.90
52125;DHT22;38119;52.710;6.398;2023-01-29T16:59:45;4.40;99.90
52125;DHT22;38119;52.710;6.398;2023-01-29T17:02:31;4.50;99.90
52125;DHT22;38119;52.710;6.398;2023-01-29T17:05:07;4.50;99.90
52125;DHT22;38119;52.710;6.398;2023-01-29T17:07:35;4.50;99.90
52125;DHT22;38119;52.710;6.398;2023-01-29T17:10:03;4.50;99.90
52125;DHT22;38119;52.710;6.398;2023-01-29T17:12:30;4.50;99.90
52125;DHT22;38119;52.710;6.398;2023-01-29T17:15:04;4.50;99.90
52125;DHT22;38119;52.710;6.398;2023-01-29T17:17:46;4.50;99.90
52125;DHT22;38119;52.710;6.398;2023-01-29T17:20:15;4.50;99.90
52125;DHT22;38119;52.710;6.398;2023-01-29T17:22:41;4.50;99.90
52125;DHT22;38119;52.710;6.398;2023-01-29T17:25:12;4.50;99.90
52125;DHT22;38119;52.710;6.398;2023-01-29T17:27:40;4.50;99.90
52125;DHT22;38119;52.710;6.398;2023-01-29T17:30:13;4.50;99.90
52125;DHT22;38119;52.710;6.398;2023-01-29T17:32:38;4.60;99.90
52125;DHT22;38119;52.710;6.398;2023-01-29T17:35:04;4.60;99.90
52125;DHT22;38119;52.710;6.398;2023-01-29T17:37:31;4.60;99.90
52125;DHT22;38119;52.710;6.398;2023-01-29T17:39:57;4.60;99.90
52125;DHT22;38119;52.710;6.398;2023-01-29T17:42:23;4.60;99.90
52125;DHT22;38119;52.710;6.398;2023-01-29T17:44:49;4.60;99.90
52125;DHT22;38119;52.710;6.398;2023-01-29T17:47:15;4.60;99.90
52125;DHT22;38119;52.710;6.398;2023-01-29T17:49:41;4.60;99.90
52125;DHT22;38119;52.710;6.398;2023-01-29T17:52:07;4.60;99.90
52125;DHT22;38119;52.710;6.398;2023-01-29T17:54:33;4.60;99.90
52125;DHT22;38119;52.710;6.398;2023-01-29T17:56:59;4.60;99.90
52125;DHT22;38119;52.710;6.398;2023-01-29T17:59:28;4.60;99.90
52125;DHT22;38119;52.710;6.398;2023-01-29T18:01:54;4.60;99.90
52125;DHT22;38119;52.710;6.398;2023-01-29T18:04:20;4.60;99.90
52125;DHT22;38119;52.710;6.398;2023-01-29T18:06:48;4.60;99.90
52125;DHT22;38119;52.710;6.398;2023-01-29T18:09:15;4.70;99.90
52125;DHT22;38119;52.710;6.398;2023-01-29T18:11:43;4.70;99.90
52125;DHT22;38119;52.710;6.398;2023-01-29T18:14:09;4.70;99.90
52125;DHT22;38119;52.710;6.398;2023-01-29T18:16:37;4.70;99.90
52125;DHT22;38119;52.710;6.398;2023-01-29T18:19:14;4.60;99.90
52125;DHT22;38119;52.710;6.398;2023-01-29T18:21:40;4.60;99.90
52125;DHT22;38119;52.710;6.398;2023-01-29T18:24:06;4.70;99.90
52125;DHT22;38119;52.710;6.398;2023-01-29T18:26:32;4.60;99.90
52125;DHT22;38119;52.710;6.398;2023-01-29T18:28:58;4.60;99.90
52125;DHT22;38119;52.710;6.398;2023-01-29T18:31:23;4.60;99.90
52125;DHT22;38119;52.710;6.398;2023-01-29T18:33:49;4.60;99.90
52125;DHT22;38119;52.710;6.398;2023-01-29T18:36:15;4.60;99.90